sensor_id;sensor_type;location;lat;lon;timestamp;temperature;humidity
35559;DHT22;21661;50.794;-1.066;2023-05-27T00:01:18;12.30;99.90
35559;DHT22;21661;50.794;-1.066;2023-05-27T00:03:45;12.30;99.90
35559;DHT22;21661;50.794;-1.066;2023-05-27T00:06:11;12.30;99.90
35559;DHT22;21661;50.794;-1.066;2023-05-27T00:08:36;12.30;99.90
35559;DHT22;21661;50.794;-1.066;2023-05-27T00:11:02;12.20;99.90
35559;DHT22;21661;50.794;-1.066;2023-05-27T00:13:27;12.20;99.90
35559;DHT22;21661;50.794;-1.066;2023-05-27T00:15:53;12.20;99.90
35559;DHT22;21661;50.794;-1.066;2023-05-27T00:18:19;12.10;99.90
35559;DHT22;21661;50.794;-1.066;2023-05-27T00:20:44;12.10;99.90
35559;DHT22;21661;50.794;-1.066;2023-05-27T00:23:10;12.10;99.90
35559;DHT22;21661;50.794;-1.066;2023-05-27T00:25:36;12.10;99.90
35559;DHT22;21661;50.794;-1.066;2023-05-27T00:28:02;12.10;99.90
35559;DHT22;21661;50.794;-1.066;2023-05-27T00:30:27;12.10;99.90
35559;DHT22;21661;50.794;-1.066;2023-05-27T00:32:53;12.10;99.90
35559;DHT22;21661;50.794;-1.066;2023-05-27T00:35:18;12.10;99.90
35559;DHT22;21661;50.794;-1.066;2023-05-27T00:37:44;12.20;99.90
35559;DHT22;21661;50.794;-1.066;2023-05-27T00:40:11;12.20;99.90
35559;DHT22;21661;50.794;-1.066;2023-05-27T00:42:37;12.20;99.90
35559;DHT22;21661;50.794;-1.066;2023-05-27T00:45:03;12.10;99.90
35559;DHT22;21661;50.794;-1.066;2023-05-27T00:47:30;12.10;99.90
35559;DHT22;21661;50.794;-1.066;2023-05-27T00:49:56;12.10;99.90
35559;DHT22;21661;50.794;-1.066;2023-05-27T00:52:24;12.10;99.90
35559;DHT22;21661;50.794;-1.066;2023-05-27T00:54:51;12.10;99.90
35559;DHT22;21661;50.794;-1.066;2023-05-27T00:57:17;12.00;99.90
35559;DHT22;21661;50.794;-1.066;2023-05-27T00:59:43;12.00;99.90
35559;DHT22;21661;50.794;-1.066;2023-05-27T01:02:08;12.00;99.90
35559;DHT22;21661;50.794;-1.066;2023-05-27T01:04:34;12.00;99.90
35559;DHT22;21661;50.794;-1.066;2023-05-27T01:14:57;12.00;99.90
35559;DHT22;21661;50.794;-1.066;2023-05-27T01:17:25;12.00;99.90
35559;DHT22;21661;50.794;-1.066;2023-05-27T01:19:52;11.90;99.90
35559;DHT22;21661;50.794;-1.066;2023-05-27T01:22:19;12.00;99.90
35559;DHT22;21661;50.794;-1.066;2023-05-27T01:24:45;12.00;99.90
35559;DHT22;21661;50.794;-1.066;2023-05-27T01:27:12;11.90;99.90
35559;DHT22;21661;50.794;-1.066;2023-05-27T01:29:40;11.90;99.90
35559;DHT22;21661;50.794;-1.066;2023-05-27T01:32:36;11.90;99.90
35559;DHT22;21661;50.794;-1.066;2023-05-27T01:35:30;11.90;99.90
35559;DHT22;21661;50.794;-1.066;2023-05-27T01:37:59;11.80;99.90
35559;DHT22;21661;50.794;-1.066;2023-05-27T01:40:27;11.80;99.90
35559;DHT22;21661;50.794;-1.066;2023-05-27T01:42:57;11.80;99.90
35559;DHT22;21661;50.794;-1.066;2023-05-27T01:45:23;11.80;99.90
35559;DHT22;21661;50.794;-1.066;2023-05-27T01:47:48;11.80;99.90
35559;DHT22;21661;50.794;-1.066;2023-05-27T01:50:14;11.70;99.90
35559;DHT22;21661;50.794;-1.066;2023-05-27T01:52:39;11.70;99.90
35559;DHT22;21661;50.794;-1.066;2023-05-27T01:55:05;11.70;99.90
35559;DHT22;21661;50.794;-1.066;2023-05-27T01:57:31;11.60;99.90
35559;DHT22;21661;50.794;-1.066;2023-05-27T01:59:57;11.60;99.90
35559;DHT22;21661;50.794;-1.066;2023-05-27T02:02:23;11.60;99.90
35559;DHT22;21661;50.794;-1.066;2023-05-27T02:04:48;11.60;99.90
35559;DHT22;21661;50.794;-1.066;2023-05-27T02:07:14;11.60;99.90
35559;DHT22;21661;50.794;-1.066;2023-05-27T02:09:39;11.60;99.90
35559;DHT22;21661;50.794;-1.066;2023-05-27T02:12:06;11.60;99.90
35559;DHT22;21661;50.794;-1.066;2023-05-27T02:14:32;11.60;99.90
35559;DHT22;21661;50.794;-1.066;2023-05-27T02:16:58;11.60;99.90
35559;DHT22;21661;50.794;-1.066;2023-05-27T02:19:23;11.50;99.90
35559;DHT22;21661;50.794;-1.066;2023-05-27T02:21:50;11.60;99.90
35559;DHT22;21661;50.794;-1.066;2023-05-27T02:24:15;11.60;99.90
35559;DHT22;21661;50.794;-1.066;2023-05-27T02:26:41;11.50;99.90
35559;DHT22;21661;50.794;-1.066;2023-05-27T02:29:07;11.60;99.90
35559;DHT22;21661;50.794;-1.066;2023-05-27T02:31:32;11.60;99.90
35559;DHT22;21661;50.794;-1.066;2023-05-27T02:33:58;11.60;99.90
35559;DHT22;21661;50.794;-1.066;2023-05-27T02:36:24;11.60;99.90
35559;DHT22;21661;50.794;-1.066;2023-05-27T02:38:50;11.50;99.90
35559;DHT22;21661;50.794;-1.066;2023-05-27T02:41:16;11.60;99.90
35559;DHT22;21661;50.794;-1.066;2023-05-27T02:43:42;11.60;99.90
35559;DHT22;21661;50.794;-1.066;2023-05-27T02:46:08;11.60;99.90
35559;DHT22;21661;50.794;-1.066;2023-05-27T02:48:34;11.50;99.90
35559;DHT22;21661;50.794;-1.066;2023-05-27T02:50:59;11.50;99.90
35559;DHT22;21661;50.794;-1.066;2023-05-27T02:53:25;11.60;99.90
35559;DHT22;21661;50.794;-1.066;2023-05-27T02:55:51;11.60;99.90
35559;DHT22;21661;50.794;-1.066;2023-05-27T02:58:17;11.50;99.90
35559;DHT22;21661;50.794;-1.066;2023-05-27T03:00:42;11.50;99.90
35559;DHT22;21661;50.794;-1.066;2023-05-27T03:03:08;11.50;99.90
35559;DHT22;21661;50.794;-1.066;2023-05-27T03:05:35;11.50;99.90
35559;DHT22;21661;50.794;-1.066;2023-05-27T03:08:01;11.40;99.90
35559;DHT22;21661;50.794;-1.066;2023-05-27T03:10:27;11.50;99.90
35559;DHT22;21661;50.794;-1.066;2023-05-27T03:12:55;11.40;99.90
35559;DHT22;21661;50.794;-1.066;2023-05-27T03:15:21;11.40;99.90
35559;DHT22;21661;50.794;-1.066;2023-05-27T03:17:49;11.40;99.90
35559;DHT22;21661;50.794;-1.066;2023-05-27T03:20:15;11.40;99.90
35559;DHT22;21661;50.794;-1.066;2023-05-27T03:22:44;11.40;99.90
35559;DHT22;21661;50.794;-1.066;2023-05-27T03:25:09;11.40;99.90
35559;DHT22;21661;50.794;-1.066;2023-05-27T03:27:35;11.30;99.90
35559;DHT22;21661;50.794;-1.066;2023-05-27T03:30:04;11.30;99.90
35559;DHT22;21661;50.794;-1.066;2023-05-27T03:32:31;11.30;99.90
35559;DHT22;21661;50.794;-1.066;2023-05-27T03:34:56;11.30;99.90
35559;DHT22;21661;50.794;-1.066;2023-05-27T03:37:22;11.40;99.90
35559;DHT22;21661;50.794;-1.066;2023-05-27T03:39:47;11.30;99.90
35559;DHT22;21661;50.794;-1.066;2023-05-27T03:42:13;11.40;99.90
35559;DHT22;21661;50.794;-1.066;2023-05-27T03:44:39;11.30;99.90
35559;DHT22;21661;50.794;-1.066;2023-05-27T03:47:05;11.30;99.90
35559;DHT22;21661;50.794;-1.066;2023-05-27T03:49:30;11.40;99.90
35559;DHT22;21661;50.794;-1.066;2023-05-27T03:51:56;11.40;99.90
35559;DHT22;21661;50.794;-1.066;2023-05-27T03:54:22;11.30;99.90
35559;DHT22;21661;50.794;-1.066;2023-05-27T03:56:47;11.30;99.90
35559;DHT22;21661;50.794;-1.066;2023-05-27T03:59:13;11.30;99.90
35559;DHT22;21661;50.794;-1.066;2023-05-27T04:01:39;11.30;99.90
35559;DHT22;21661;50.794;-1.066;2023-05-27T04:04:06;11.30;99.90
35559;DHT22;21661;50.794;-1.066;2023-05-27T04:06:32;11.30;99.90
35559;DHT22;21661;50.794;-1.066;2023-05-27T04:08:58;11.30;99.90
35559;DHT22;21661;50.794;-1.066;2023-05-27T04:11:26;11.30;99.90
35559;DHT22;21661;50.794;-1.066;2023-05-27T04:13:52;11.30;99.90
35559;DHT22;21661;50.794;-1.066;2023-05-27T04:16:18;11.40;99.90
35559;DHT22;21661;50.794;-1.066;2023-05-27T04:18:43;11.40;99.90
35559;DHT22;21661;50.794;-1.066;2023-05-27T04:21:23;11.40;99.90
35559;DHT22;21661;50.794;-1.066;2023-05-27T04:23:49;11.40;99.90
35559;DHT22;21661;50.794;-1.066;2023-05-27T04:26:14;11.40;99.90
35559;DHT22;21661;50.794;-1.066;2023-05-27T04:28:40;11.40;99.90
35559;DHT22;21661;50.794;-1.066;2023-05-27T04:31:06;11.40;99.90
35559;DHT22;21661;50.794;-1.066;2023-05-27T04:33:40;11.40;99.90
35559;DHT22;21661;50.794;-1.066;2023-05-27T04:36:09;11.50;99.90
35559;DHT22;21661;50.794;-1.066;2023-05-27T04:38:35;11.50;99.90
35559;DHT22;21661;50.794;-1.066;2023-05-27T04:41:00;11.50;99.90
35559;DHT22;21661;50.794;-1.066;2023-05-27T04:43:27;11.50;99.90
35559;DHT22;21661;50.794;-1.066;2023-05-27T04:45:58;11.50;99.90
35559;DHT22;21661;50.794;-1.066;2023-05-27T04:48:27;11.40;99.90
35559;DHT22;21661;50.794;-1.066;2023-05-27T04:50:52;11.50;99.90
35559;DHT22;21661;50.794;-1.066;2023-05-27T04:53:19;11.50;99.90
35559;DHT22;21661;50.794;-1.066;2023-05-27T04:55:44;11.40;99.90
35559;DHT22;21661;50.794;-1.066;2023-05-27T04:58:11;11.40;99.90
35559;DHT22;21661;50.794;-1.066;2023-05-27T05:00:38;11.40;99.90
35559;DHT22;21661;50.794;-1.066;2023-05-27T05:03:21;11.40;99.90
35559;DHT22;21661;50.794;-1.066;2023-05-27T05:05:50;11.50;99.90
35559;DHT22;21661;50.794;-1.066;2023-05-27T05:08:20;11.50;99.90
35559;DHT22;21661;50.794;-1.066;2023-05-27T05:10:47;11.50;99.90
35559;DHT22;21661;50.794;-1.066;2023-05-27T05:13:12;11.50;99.90
35559;DHT22;21661;50.794;-1.066;2023-05-27T05:15:39;11.50;99.90
35559;DHT22;21661;50.794;-1.066;2023-05-27T05:18:04;11.50;99.90
35559;DHT22;21661;50.794;-1.066;2023-05-27T05:20:30;11.60;99.90
35559;DHT22;21661;50.794;-1.066;2023-05-27T05:22:56;11.60;99.90
35559;DHT22;21661;50.794;-1.066;2023-05-27T05:25:21;11.60;99.90
35559;DHT22;21661;50.794;-1.066;2023-05-27T05:27:47;11.60;99.90
35559;DHT22;21661;50.794;-1.066;2023-05-27T05:30:12;11.60;99.90
35559;DHT22;21661;50.794;-1.066;2023-05-27T05:32:38;11.70;99.90
35559;DHT22;21661;50.794;-1.066;2023-05-27T05:35:04;11.70;99.90
35559;DHT22;21661;50.794;-1.066;2023-05-27T05:37:30;11.60;99.90
35559;DHT22;21661;50.794;-1.066;2023-05-27T05:39:55;11.60;99.90
35559;DHT22;21661;50.794;-1.066;2023-05-27T05:42:21;11.60;99.90
35559;DHT22;21661;50.794;-1.066;2023-05-27T05:44:47;11.60;99.90
35559;DHT22;21661;50.794;-1.066;2023-05-27T05:47:12;11.60;99.90
35559;DHT22;21661;50.794;-1.066;2023-05-27T05:49:38;11.70;99.90
35559;DHT22;21661;50.794;-1.066;2023-05-27T05:52:04;11.60;99.90
35559;DHT22;21661;50.794;-1.066;2023-05-27T05:54:30;11.70;99.90
35559;DHT22;21661;50.794;-1.066;2023-05-27T05:56:55;11.80;99.90
35559;DHT22;21661;50.794;-1.066;2023-05-27T05:59:21;11.80;99.90
35559;DHT22;21661;50.794;-1.066;2023-05-27T06:01:46;11.90;99.90
35559;DHT22;21661;50.794;-1.066;2023-05-27T06:04:12;11.80;99.90
35559;DHT22;21661;50.794;-1.066;2023-05-27T06:06:37;11.90;99.90
35559;DHT22;21661;50.794;-1.066;2023-05-27T06:09:05;11.90;99.90
35559;DHT22;21661;50.794;-1.066;2023-05-27T06:11:30;12.00;99.90
35559;DHT22;21661;50.794;-1.066;2023-05-27T06:13:56;12.00;99.90
35559;DHT22;21661;50.794;-1.066;2023-05-27T06:16:22;12.10;99.90
35559;DHT22;21661;50.794;-1.066;2023-05-27T06:18:48;12.10;99.90
35559;DHT22;21661;50.794;-1.066;2023-05-27T06:21:13;12.10;99.90
35559;DHT22;21661;50.794;-1.066;2023-05-27T06:23:39;12.20;99.90
35559;DHT22;21661;50.794;-1.066;2023-05-27T06:26:04;12.30;99.90
35559;DHT22;21661;50.794;-1.066;2023-05-27T06:28:30;12.30;99.90
35559;DHT22;21661;50.794;-1.066;2023-05-27T06:30:56;12.30;99.90
35559;DHT22;21661;50.794;-1.066;2023-05-27T06:33:21;12.40;99.90
35559;DHT22;21661;50.794;-1.066;2023-05-27T06:35:47;12.40;99.90
35559;DHT22;21661;50.794;-1.066;2023-05-27T06:38:12;12.40;99.90
35559;DHT22;21661;50.794;-1.066;2023-05-27T06:40:38;12.40;99.90
35559;DHT22;21661;50.794;-1.066;2023-05-27T06:43:04;12.50;99.90
35559;DHT22;21661;50.794;-1.066;2023-05-27T06:45:29;12.50;99.90
35559;DHT22;21661;50.794;-1.066;2023-05-27T06:47:56;12.50;99.90
35559;DHT22;21661;50.794;-1.066;2023-05-27T06:50:21;12.60;99.90
35559;DHT22;21661;50.794;-1.066;2023-05-27T06:52:47;12.60;99.90
35559;DHT22;21661;50.794;-1.066;2023-05-27T06:55:12;12.70;99.90
35559;DHT22;21661;50.794;-1.066;2023-05-27T06:57:38;12.70;99.90
35559;DHT22;21661;50.794;-1.066;2023-05-27T07:00:04;12.80;99.90
35559;DHT22;21661;50.794;-1.066;2023-05-27T07:02:31;12.80;99.90
35559;DHT22;21661;50.794;-1.066;2023-05-27T07:04:57;12.80;99.90
35559;DHT22;21661;50.794;-1.066;2023-05-27T07:07:22;12.80;99.90
35559;DHT22;21661;50.794;-1.066;2023-05-27T07:09:48;12.90;99.90
35559;DHT22;21661;50.794;-1.066;2023-05-27T07:12:13;12.90;99.90
35559;DHT22;21661;50.794;-1.066;2023-05-27T07:14:39;13.00;99.90
35559;DHT22;21661;50.794;-1.066;2023-05-27T07:17:05;13.00;99.90
35559;DHT22;21661;50.794;-1.066;2023-05-27T07:19:30;13.10;99.90
35559;DHT22;21661;50.794;-1.066;2023-05-27T07:21:56;13.00;99.90
35559;DHT22;21661;50.794;-1.066;2023-05-27T07:24:22;13.10;99.90
35559;DHT22;21661;50.794;-1.066;2023-05-27T07:26:47;13.20;99.90
35559;DHT22;21661;50.794;-1.066;2023-05-27T07:29:13;13.20;99.90
35559;DHT22;21661;50.794;-1.066;2023-05-27T07:31:39;13.30;99.90
35559;DHT22;21661;50.794;-1.066;2023-05-27T07:34:04;13.30;99.90
35559;DHT22;21661;50.794;-1.066;2023-05-27T07:36:30;13.40;99.90
35559;DHT22;21661;50.794;-1.066;2023-05-27T07:38:56;13.40;99.90
35559;DHT22;21661;50.794;-1.066;2023-05-27T07:41:22;13.40;99.90
35559;DHT22;21661;50.794;-1.066;2023-05-27T07:43:47;13.50;99.90
35559;DHT22;21661;50.794;-1.066;2023-05-27T07:46:13;13.50;99.90
35559;DHT22;21661;50.794;-1.066;2023-05-27T07:48:39;13.60;99.90
35559;DHT22;21661;50.794;-1.066;2023-05-27T07:51:05;13.60;99.90
35559;DHT22;21661;50.794;-1.066;2023-05-27T07:53:30;13.70;99.90
35559;DHT22;21661;50.794;-1.066;2023-05-27T07:55:57;13.70;99.90
35559;DHT22;21661;50.794;-1.066;2023-05-27T07:58:23;13.70;99.90
35559;DHT22;21661;50.794;-1.066;2023-05-27T08:00:48;13.80;99.90
35559;DHT22;21661;50.794;-1.066;2023-05-27T08:03:14;13.90;99.90
35559;DHT22;21661;50.794;-1.066;2023-05-27T08:05:39;13.90;99.90
35559;DHT22;21661;50.794;-1.066;2023-05-27T08:08:05;14.00;99.90
35559;DHT22;21661;50.794;-1.066;2023-05-27T08:10:31;14.00;99.90
35559;DHT22;21661;50.794;-1.066;2023-05-27T08:12:56;14.10;99.90
35559;DHT22;21661;50.794;-1.066;2023-05-27T08:15:22;14.20;99.90
35559;DHT22;21661;50.794;-1.066;2023-05-27T08:17:48;14.20;99.90
35559;DHT22;21661;50.794;-1.066;2023-05-27T08:20:13;14.30;99.90
35559;DHT22;21661;50.794;-1.066;2023-05-27T08:22:40;14.30;99.90
35559;DHT22;21661;50.794;-1.066;2023-05-27T08:25:06;14.40;99.90
35559;DHT22;21661;50.794;-1.066;2023-05-27T08:30:14;14.50;99.90
35559;DHT22;21661;50.794;-1.066;2023-05-27T08:32:43;14.50;99.90
35559;DHT22;21661;50.794;-1.066;2023-05-27T08:35:09;14.50;99.90
35559;DHT22;21661;50.794;-1.066;2023-05-27T08:37:36;14.60;99.90
35559;DHT22;21661;50.794;-1.066;2023-05-27T08:40:03;14.60;99.90
35559;DHT22;21661;50.794;-1.066;2023-05-27T08:42:32;14.60;99.90
35559;DHT22;21661;50.794;-1.066;2023-05-27T08:44:58;14.70;99.90
35559;DHT22;21661;50.794;-1.066;2023-05-27T08:47:25;14.70;99.90
35559;DHT22;21661;50.794;-1.066;2023-05-27T08:49:51;14.80;99.90
35559;DHT22;21661;50.794;-1.066;2023-05-27T08:52:18;14.90;99.90
35559;DHT22;21661;50.794;-1.066;2023-05-27T08:54:46;14.90;99.90
35559;DHT22;21661;50.794;-1.066;2023-05-27T08:57:12;14.90;99.90
35559;DHT22;21661;50.794;-1.066;2023-05-27T08:59:39;15.00;99.90
35559;DHT22;21661;50.794;-1.066;2023-05-27T09:02:11;15.00;99.90
35559;DHT22;21661;50.794;-1.066;2023-05-27T09:04:40;15.10;99.90
35559;DHT22;21661;50.794;-1.066;2023-05-27T09:07:07;15.10;99.90
35559;DHT22;21661;50.794;-1.066;2023-05-27T09:09:33;15.30;99.90
35559;DHT22;21661;50.794;-1.066;2023-05-27T09:12:01;15.30;99.90
35559;DHT22;21661;50.794;-1.066;2023-05-27T09:14:28;15.40;99.90
35559;DHT22;21661;50.794;-1.066;2023-05-27T09:16:55;15.50;99.90
35559;DHT22;21661;50.794;-1.066;2023-05-27T09:19:21;15.50;99.90
35559;DHT22;21661;50.794;-1.066;2023-05-27T09:21:48;15.50;99.90
35559;DHT22;21661;50.794;-1.066;2023-05-27T09:24:13;15.60;99.90
35559;DHT22;21661;50.794;-1.066;2023-05-27T09:26:39;15.60;99.90
35559;DHT22;21661;50.794;-1.066;2023-05-27T09:29:08;15.70;99.90
35559;DHT22;21661;50.794;-1.066;2023-05-27T09:31:41;15.70;99.90
35559;DHT22;21661;50.794;-1.066;2023-05-27T09:34:11;15.90;99.90
35559;DHT22;21661;50.794;-1.066;2023-05-27T09:36:45;16.00;99.90
35559;DHT22;21661;50.794;-1.066;2023-05-27T09:39:13;16.00;99.90
35559;DHT22;21661;50.794;-1.066;2023-05-27T09:41:40;16.10;99.90
35559;DHT22;21661;50.794;-1.066;2023-05-27T09:44:06;16.20;99.90
35559;DHT22;21661;50.794;-1.066;2023-05-27T09:46:32;16.20;99.90
35559;DHT22;21661;50.794;-1.066;2023-05-27T09:48:59;16.30;99.90
35559;DHT22;21661;50.794;-1.066;2023-05-27T09:51:29;16.30;99.90
35559;DHT22;21661;50.794;-1.066;2023-05-27T09:53:54;16.40;99.90
35559;DHT22;21661;50.794;-1.066;2023-05-27T09:56:27;16.40;99.90
35559;DHT22;21661;50.794;-1.066;2023-05-27T09:58:57;16.40;99.90
35559;DHT22;21661;50.794;-1.066;2023-05-27T10:01:25;16.50;99.90
35559;DHT22;21661;50.794;-1.066;2023-05-27T10:03:53;16.60;99.90
35559;DHT22;21661;50.794;-1.066;2023-05-27T10:06:20;16.60;99.90
35559;DHT22;21661;50.794;-1.066;2023-05-27T10:08:47;16.80;99.90
35559;DHT22;21661;50.794;-1.066;2023-05-27T10:11:13;16.80;99.90
35559;DHT22;21661;50.794;-1.066;2023-05-27T10:13:39;16.80;99.90
35559;DHT22;21661;50.794;-1.066;2023-05-27T10:16:05;16.80;99.90
35559;DHT22;21661;50.794;-1.066;2023-05-27T10:18:31;16.90;99.90
35559;DHT22;21661;50.794;-1.066;2023-05-27T10:21:00;17.00;99.90
35559;DHT22;21661;50.794;-1.066;2023-05-27T10:23:29;17.00;99.90
35559;DHT22;21661;50.794;-1.066;2023-05-27T10:26:06;17.00;99.90
35559;DHT22;21661;50.794;-1.066;2023-05-27T10:28:34;17.10;99.90
35559;DHT22;21661;50.794;-1.066;2023-05-27T10:31:16;17.20;99.90
35559;DHT22;21661;50.794;-1.066;2023-05-27T10:33:47;17.20;99.90
35559;DHT22;21661;50.794;-1.066;2023-05-27T10:38:40;17.50;99.90
35559;DHT22;21661;50.794;-1.066;2023-05-27T10:41:07;17.50;99.90
35559;DHT22;21661;50.794;-1.066;2023-05-27T10:43:34;17.50;99.90
35559;DHT22;21661;50.794;-1.066;2023-05-27T10:46:07;17.60;99.90
35559;DHT22;21661;50.794;-1.066;2023-05-27T10:48:33;17.60;99.90
35559;DHT22;21661;50.794;-1.066;2023-05-27T10:51:00;17.60;99.90
35559;DHT22;21661;50.794;-1.066;2023-05-27T10:53:28;17.60;99.90
35559;DHT22;21661;50.794;-1.066;2023-05-27T10:55:58;17.70;99.90
35559;DHT22;21661;50.794;-1.066;2023-05-27T10:58:25;17.80;99.90
35559;DHT22;21661;50.794;-1.066;2023-05-27T11:00:51;17.90;99.90
35559;DHT22;21661;50.794;-1.066;2023-05-27T11:03:27;17.90;99.90
35559;DHT22;21661;50.794;-1.066;2023-05-27T11:06:00;18.00;99.90
35559;DHT22;21661;50.794;-1.066;2023-05-27T11:08:27;18.10;99.90
35559;DHT22;21661;50.794;-1.066;2023-05-27T11:13:33;18.30;99.90
35559;DHT22;21661;50.794;-1.066;2023-05-27T11:16:04;18.30;99.90
35559;DHT22;21661;50.794;-1.066;2023-05-27T11:18:48;18.40;99.90
35559;DHT22;21661;50.794;-1.066;2023-05-27T11:21:17;18.50;99.90
35559;DHT22;21661;50.794;-1.066;2023-05-27T11:23:46;18.60;99.90
35559;DHT22;21661;50.794;-1.066;2023-05-27T11:26:17;18.80;99.90
35559;DHT22;21661;50.794;-1.066;2023-05-27T11:28:56;18.80;99.90
35559;DHT22;21661;50.794;-1.066;2023-05-27T11:31:30;18.80;99.90
35559;DHT22;21661;50.794;-1.066;2023-05-27T11:33:58;18.70;99.90
35559;DHT22;21661;50.794;-1.066;2023-05-27T11:36:28;18.80;99.90
35559;DHT22;21661;50.794;-1.066;2023-05-27T11:38:58;18.90;99.90
35559;DHT22;21661;50.794;-1.066;2023-05-27T11:41:26;18.90;99.90
35559;DHT22;21661;50.794;-1.066;2023-05-27T11:43:56;19.00;99.90
35559;DHT22;21661;50.794;-1.066;2023-05-27T11:46:22;19.10;99.90
35559;DHT22;21661;50.794;-1.066;2023-05-27T11:48:48;19.10;99.90
35559;DHT22;21661;50.794;-1.066;2023-05-27T11:51:14;19.20;99.90
35559;DHT22;21661;50.794;-1.066;2023-05-27T11:53:45;19.30;99.90
35559;DHT22;21661;50.794;-1.066;2023-05-27T11:56:10;19.40;99.90
35559;DHT22;21661;50.794;-1.066;2023-05-27T11:58:36;19.50;99.90
35559;DHT22;21661;50.794;-1.066;2023-05-27T12:01:03;19.50;99.90
35559;DHT22;21661;50.794;-1.066;2023-05-27T12:03:29;19.50;99.90
35559;DHT22;21661;50.794;-1.066;2023-05-27T12:05:55;19.60;99.90
35559;DHT22;21661;50.794;-1.066;2023-05-27T12:08:23;19.80;99.90
35559;DHT22;21661;50.794;-1.066;2023-05-27T12:10:50;19.80;99.90
35559;DHT22;21661;50.794;-1.066;2023-05-27T12:13:19;19.90;99.90
35559;DHT22;21661;50.794;-1.066;2023-05-27T12:15:46;19.80;99.90
35559;DHT22;21661;50.794;-1.066;2023-05-27T12:18:11;19.80;99.90
35559;DHT22;21661;50.794;-1.066;2023-05-27T12:20:37;20.00;99.90
35559;DHT22;21661;50.794;-1.066;2023-05-27T12:23:03;19.90;99.90
35559;DHT22;21661;50.794;-1.066;2023-05-27T12:25:28;20.00;99.90
35559;DHT22;21661;50.794;-1.066;2023-05-27T12:27:54;19.90;99.90
35559;DHT22;21661;50.794;-1.066;2023-05-27T12:30:19;20.00;99.90
35559;DHT22;21661;50.794;-1.066;2023-05-27T12:32:46;20.00;99.90
35559;DHT22;21661;50.794;-1.066;2023-05-27T12:35:11;20.10;99.90
35559;DHT22;21661;50.794;-1.066;2023-05-27T12:37:37;20.20;99.90
35559;DHT22;21661;50.794;-1.066;2023-05-27T12:40:03;20.20;99.90
35559;DHT22;21661;50.794;-1.066;2023-05-27T12:42:34;20.10;99.90
35559;DHT22;21661;50.794;-1.066;2023-05-27T12:45:00;20.30;99.90
35559;DHT22;21661;50.794;-1.066;2023-05-27T12:47:25;20.40;99.90
35559;DHT22;21661;50.794;-1.066;2023-05-27T12:49:51;20.50;99.90
35559;DHT22;21661;50.794;-1.066;2023-05-27T12:52:17;20.50;99.90
35559;DHT22;21661;50.794;-1.066;2023-05-27T12:54:42;20.60;99.90
35559;DHT22;21661;50.794;-1.066;2023-05-27T12:57:08;20.50;99.90
35559;DHT22;21661;50.794;-1.066;2023-05-27T12:59:34;20.60;99.90
35559;DHT22;21661;50.794;-1.066;2023-05-27T13:02:00;20.60;99.90
35559;DHT22;21661;50.794;-1.066;2023-05-27T13:04:26;20.70;99.90
35559;DHT22;21661;50.794;-1.066;2023-05-27T13:06:51;20.70;99.90
35559;DHT22;21661;50.794;-1.066;2023-05-27T13:09:17;20.70;99.90
35559;DHT22;21661;50.794;-1.066;2023-05-27T13:11:44;20.80;99.90
35559;DHT22;21661;50.794;-1.066;2023-05-27T13:14:09;20.90;99.90
35559;DHT22;21661;50.794;-1.066;2023-05-27T13:16:35;21.00;99.90
35559;DHT22;21661;50.794;-1.066;2023-05-27T13:19:01;21.10;99.90
35559;DHT22;21661;50.794;-1.066;2023-05-27T13:21:26;21.20;99.90
35559;DHT22;21661;50.794;-1.066;2023-05-27T13:23:53;21.30;99.90
35559;DHT22;21661;50.794;-1.066;2023-05-27T13:26:19;21.30;99.90
35559;DHT22;21661;50.794;-1.066;2023-05-27T13:28:47;21.20;99.90
35559;DHT22;21661;50.794;-1.066;2023-05-27T13:31:13;21.10;99.90
35559;DHT22;21661;50.794;-1.066;2023-05-27T13:33:40;21.10;99.90
35559;DHT22;21661;50.794;-1.066;2023-05-27T13:36:06;21.30;99.90
35559;DHT22;21661;50.794;-1.066;2023-05-27T13:38:32;21.20;99.90
35559;DHT22;21661;50.794;-1.066;2023-05-27T13:40:58;21.20;99.90
35559;DHT22;21661;50.794;-1.066;2023-05-27T13:43:27;21.00;99.90
35559;DHT22;21661;50.794;-1.066;2023-05-27T13:45:53;21.00;99.90
35559;DHT22;21661;50.794;-1.066;2023-05-27T13:48:19;21.10;99.90
35559;DHT22;21661;50.794;-1.066;2023-05-27T13:50:45;21.10;99.90
35559;DHT22;21661;50.794;-1.066;2023-05-27T13:53:10;21.10;99.90
35559;DHT22;21661;50.794;-1.066;2023-05-27T13:55:36;21.10;99.90
35559;DHT22;21661;50.794;-1.066;2023-05-27T13:58:02;21.20;99.90
35559;DHT22;21661;50.794;-1.066;2023-05-27T14:00:28;21.20;99.90
35559;DHT22;21661;50.794;-1.066;2023-05-27T14:02:55;21.10;99.90
35559;DHT22;21661;50.794;-1.066;2023-05-27T14:05:20;21.10;99.90
35559;DHT22;21661;50.794;-1.066;2023-05-27T14:07:46;21.10;99.90
35559;DHT22;21661;50.794;-1.066;2023-05-27T14:10:12;21.10;99.90
35559;DHT22;21661;50.794;-1.066;2023-05-27T14:12:38;21.10;99.90
35559;DHT22;21661;50.794;-1.066;2023-05-27T14:15:05;21.00;99.90
35559;DHT22;21661;50.794;-1.066;2023-05-27T14:17:30;21.10;99.90
35559;DHT22;21661;50.794;-1.066;2023-05-27T14:19:56;21.10;99.90
35559;DHT22;21661;50.794;-1.066;2023-05-27T14:22:23;21.00;99.90
35559;DHT22;21661;50.794;-1.066;2023-05-27T14:24:49;21.00;99.90
35559;DHT22;21661;50.794;-1.066;2023-05-27T14:27:14;20.90;99.90
35559;DHT22;21661;50.794;-1.066;2023-05-27T14:29:40;21.00;99.90
35559;DHT22;21661;50.794;-1.066;2023-05-27T14:32:07;21.10;99.90
35559;DHT22;21661;50.794;-1.066;2023-05-27T14:34:32;21.10;99.90
35559;DHT22;21661;50.794;-1.066;2023-05-27T14:36:58;21.00;99.90
35559;DHT22;21661;50.794;-1.066;2023-05-27T14:39:24;20.90;99.90
35559;DHT22;21661;50.794;-1.066;2023-05-27T14:41:49;20.90;99.90
35559;DHT22;21661;50.794;-1.066;2023-05-27T14:44:15;20.80;99.90
35559;DHT22;21661;50.794;-1.066;2023-05-27T14:46:40;20.80;99.90
35559;DHT22;21661;50.794;-1.066;2023-05-27T14:49:06;20.70;99.90
35559;DHT22;21661;50.794;-1.066;2023-05-27T14:51:32;20.70;99.90
35559;DHT22;21661;50.794;-1.066;2023-05-27T14:53:57;20.80;99.90
35559;DHT22;21661;50.794;-1.066;2023-05-27T14:56:23;20.70;99.90
35559;DHT22;21661;50.794;-1.066;2023-05-27T14:58:48;20.70;99.90
35559;DHT22;21661;50.794;-1.066;2023-05-27T15:01:16;20.60;99.90
35559;DHT22;21661;50.794;-1.066;2023-05-27T15:03:41;20.60;99.90
35559;DHT22;21661;50.794;-1.066;2023-05-27T15:06:08;20.70;99.90
35559;DHT22;21661;50.794;-1.066;2023-05-27T15:08:36;20.80;99.90
35559;DHT22;21661;50.794;-1.066;2023-05-27T15:11:02;20.50;99.90
35559;DHT22;21661;50.794;-1.066;2023-05-27T15:13:28;20.60;99.90
35559;DHT22;21661;50.794;-1.066;2023-05-27T15:15:54;20.50;99.90
35559;DHT22;21661;50.794;-1.066;2023-05-27T15:18:19;20.50;99.90
35559;DHT22;21661;50.794;-1.066;2023-05-27T15:20:45;20.30;99.90
35559;DHT22;21661;50.794;-1.066;2023-05-27T15:23:11;20.20;99.90
35559;DHT22;21661;50.794;-1.066;2023-05-27T15:25:37;19.90;99.90
35559;DHT22;21661;50.794;-1.066;2023-05-27T15:28:03;19.80;99.90